createdAt,value
2017-08-04T00:01:05.772Z,25.10
2017-08-04T00:03:32.186Z,26.10
2017-08-04T00:05:58.566Z,24.80
2017-08-04T00:08:25.083Z,22.47
2017-08-04T00:10:51.482Z,21.80
2017-08-04T00:13:18.345Z,29.60
2017-08-04T00:15:44.830Z,38.60
2017-08-04T00:18:11.981Z,30.23
2017-08-04T00:20:38.326Z,25.33
2017-08-04T00:23:04.709Z,30.23
2017-08-04T00:25:31.078Z,32.63
2017-08-04T00:27:58.185Z,29.33
2017-08-04T00:39:25.415Z,24.30
2017-08-04T00:41:52.817Z,22.47
2017-08-04T00:47:13.723Z,34.13
2017-08-04T00:49:40.191Z,24.27
2017-08-04T00:52:07.433Z,26.57
2017-08-04T00:54:33.934Z,23.53
2017-08-04T00:57:00.435Z,25.80
2017-08-04T00:59:26.776Z,35.33
2017-08-04T01:01:53.859Z,32.87
2017-08-04T01:07:21.555Z,22.70
2017-08-04T01:09:47.914Z,21.30
2017-08-04T01:12:14.392Z,25.83
2017-08-04T01:14:40.832Z,28.17
2017-08-04T01:17:07.242Z,29.63
2017-08-04T01:19:33.604Z,34.60
2017-08-04T01:22:00.788Z,23.70
2017-08-04T01:24:27.393Z,26.13
2017-08-04T01:26:53.817Z,27.33
2017-08-04T01:29:20.307Z,25.97
2017-08-04T01:31:46.739Z,31.93
2017-08-04T01:34:13.849Z,33.20
2017-08-04T01:36:40.241Z,32.73
2017-08-04T01:39:06.765Z,25.60
2017-08-04T01:41:33.212Z,23.17
2017-08-04T01:43:59.644Z,29.70
2017-08-04T01:46:26.109Z,30.17
2017-08-04T01:48:52.467Z,30.00
2017-08-04T01:51:19.636Z,34.63
2017-08-04T01:53:46.055Z,26.50
2017-08-04T01:56:13.198Z,30.50
2017-08-04T01:58:39.570Z,26.80
2017-08-04T02:01:05.982Z,26.77
2017-08-04T02:03:32.338Z,32.63
2017-08-04T02:05:58.728Z,35.20
2017-08-04T02:08:25.894Z,26.13
2017-08-04T02:10:52.557Z,31.50
2017-08-04T02:13:18.969Z,23.00
2017-08-04T02:15:45.330Z,22.03
2017-08-04T02:18:11.705Z,23.40
2017-08-04T02:20:38.811Z,32.53
2017-08-04T02:23:05.281Z,19.33
2017-08-04T02:25:32.392Z,27.03
2017-08-04T02:27:58.739Z,21.40
2017-08-04T02:30:25.810Z,29.60
2017-08-04T02:32:52.903Z,24.20
2017-08-04T02:35:19.243Z,32.00
2017-08-04T02:37:45.608Z,35.53
2017-08-04T02:40:12.722Z,21.77
2017-08-04T02:42:39.151Z,25.97
2017-08-04T02:45:05.586Z,28.47
2017-08-04T02:47:32.765Z,22.23
2017-08-04T02:49:59.864Z,33.40
2017-08-04T02:52:26.226Z,25.23
2017-08-04T02:54:52.591Z,32.27
2017-08-04T02:57:18.939Z,26.30
2017-08-04T02:59:45.289Z,23.93
2017-08-04T03:02:18.576Z,25.57
2017-08-04T03:04:44.967Z,24.10
2017-08-04T03:07:11.383Z,26.33
2017-08-04T03:09:38.477Z,25.43
2017-08-04T03:12:04.883Z,25.80
2017-08-04T03:14:31.261Z,25.27
2017-08-04T03:16:57.641Z,33.27
2017-08-04T03:19:23.967Z,27.87
2017-08-04T03:21:50.340Z,29.30
2017-08-04T03:24:16.721Z,22.63
2017-08-04T03:26:43.810Z,24.47
2017-08-04T03:29:10.943Z,27.50
2017-08-04T03:31:37.280Z,29.43
2017-08-04T03:34:03.644Z,25.00
2017-08-04T03:36:30.015Z,19.40
2017-08-04T03:38:56.367Z,27.80
2017-08-04T03:41:22.740Z,21.50
2017-08-04T03:43:49.863Z,25.63
2017-08-04T03:46:16.201Z,22.40
2017-08-04T03:48:42.591Z,32.17
2017-08-04T03:51:08.952Z,32.77
2017-08-04T03:53:35.352Z,28.97
2017-08-04T03:56:01.724Z,25.20
2017-08-04T03:58:28.083Z,21.23
2017-08-04T04:00:55.224Z,24.23
2017-08-04T04:03:22.382Z,32.40
2017-08-04T04:05:49.521Z,22.50
2017-08-04T04:08:15.882Z,28.73
2017-08-04T04:10:42.296Z,23.03
2017-08-04T04:13:08.700Z,35.93
2017-08-04T04:15:35.074Z,29.83
2017-08-04T04:18:01.420Z,22.70
2017-08-04T04:20:27.795Z,23.80
2017-08-04T04:22:54.217Z,27.97
2017-08-04T04:25:20.581Z,27.10
2017-08-04T04:27:46.962Z,20.30
2017-08-04T04:30:13.333Z,24.13
2017-08-04T04:32:40.035Z,30.67
2017-08-04T04:35:06.398Z,28.10
2017-08-04T04:37:32.760Z,26.27
2017-08-04T04:39:59.093Z,25.13
2017-08-04T04:42:25.439Z,25.40
2017-08-04T04:44:52.510Z,22.20
2017-08-04T04:47:19.676Z,35.10
2017-08-04T04:49:46.045Z,22.13
2017-08-04T04:52:12.413Z,32.63
2017-08-04T04:54:38.784Z,31.83
2017-08-04T04:57:05.157Z,29.00
2017-08-04T04:59:32.520Z,33.83
2017-08-04T05:01:58.883Z,34.30
2017-08-04T05:04:26.154Z,26.80
2017-08-04T05:06:52.506Z,26.33
2017-08-04T05:09:18.858Z,21.50
2017-08-04T05:11:45.299Z,31.33
2017-08-04T05:14:11.705Z,26.80
2017-08-04T05:16:38.037Z,34.00
2017-08-04T05:19:04.411Z,26.00
2017-08-04T05:21:30.764Z,22.57
2017-08-04T05:23:57.194Z,24.73
2017-08-04T05:26:23.549Z,32.90
2017-08-04T05:28:50.490Z,30.60
2017-08-04T05:31:16.856Z,29.60
2017-08-04T05:33:43.279Z,27.03
2017-08-04T05:36:09.634Z,25.00
2017-08-04T05:38:35.988Z,21.10
2017-08-04T05:41:02.456Z,26.40
2017-08-04T05:43:29.219Z,26.00
2017-08-04T05:45:55.577Z,34.13
2017-08-04T05:48:22.660Z,25.83
2017-08-04T05:50:49.119Z,27.63
2017-08-04T05:53:15.485Z,31.33
2017-08-04T05:55:41.868Z,33.33
2017-08-04T05:58:08.255Z,26.37
2017-08-04T06:00:34.633Z,29.93
2017-08-04T06:03:00.966Z,26.50
2017-08-04T06:05:27.359Z,24.00
2017-08-04T06:07:53.693Z,29.80
2017-08-04T06:10:20.088Z,21.10
2017-08-04T06:12:46.524Z,29.87
2017-08-04T06:15:12.871Z,34.20
2017-08-04T06:17:39.249Z,19.80
2017-08-04T06:20:05.612Z,31.40
2017-08-04T06:22:31.999Z,23.23
2017-08-04T06:24:58.372Z,26.10
2017-08-04T06:27:24.738Z,20.53
2017-08-04T06:29:51.093Z,22.30
2017-08-04T06:32:17.474Z,20.93
2017-08-04T06:34:43.834Z,24.07
2017-08-04T06:37:10.199Z,19.03
2017-08-04T06:39:36.545Z,22.77
2017-08-04T06:42:02.907Z,19.20
2017-08-04T06:44:29.256Z,18.90
2017-08-04T06:46:55.997Z,17.17
2017-08-04T06:49:34.456Z,22.60
2017-08-04T06:52:13.043Z,22.07
2017-08-04T06:54:51.643Z,17.67
2017-08-04T06:57:18.326Z,20.70
2017-08-04T06:59:44.770Z,22.83
2017-08-04T07:02:11.167Z,16.40
2017-08-04T07:04:38.305Z,17.60
2017-08-04T07:07:04.645Z,16.63
2017-08-04T07:09:31.738Z,21.40
2017-08-04T07:11:58.172Z,17.93
2017-08-04T07:14:24.552Z,19.83
2017-08-04T07:16:51.667Z,18.70
2017-08-04T07:19:18.031Z,16.80
2017-08-04T07:21:45.188Z,18.10
2017-08-04T07:24:12.305Z,14.47
2017-08-04T07:26:38.698Z,15.17
2017-08-04T07:29:05.037Z,17.47
2017-08-04T07:31:31.464Z,15.83
2017-08-04T07:33:57.831Z,24.17
2017-08-04T07:36:24.420Z,21.53
2017-08-04T07:38:50.773Z,15.70
2017-08-04T07:41:17.123Z,22.40
2017-08-04T07:43:43.773Z,26.80
2017-08-04T07:46:10.296Z,15.43
2017-08-04T07:48:37.562Z,19.80
2017-08-04T07:51:03.997Z,16.93
2017-08-04T07:53:31.071Z,20.50
2017-08-04T07:56:05.290Z,16.50
2017-08-04T07:58:31.653Z,19.90
2017-08-04T08:00:58.036Z,18.80
2017-08-04T08:03:24.430Z,21.93
2017-08-04T08:05:51.550Z,16.90
2017-08-04T08:08:19.054Z,23.67
2017-08-04T08:10:46.142Z,22.73
2017-08-04T08:13:12.587Z,15.87
2017-08-04T08:15:38.971Z,16.00
2017-08-04T08:18:05.306Z,19.10
2017-08-04T08:20:31.725Z,23.30
2017-08-04T08:22:58.838Z,16.17
2017-08-04T08:25:25.626Z,28.93
2017-08-04T08:27:52.025Z,20.10
2017-08-04T08:30:18.463Z,26.00
2017-08-04T08:32:44.836Z,26.90
2017-08-04T08:35:11.252Z,23.83
2017-08-04T08:37:37.708Z,22.93
2017-08-04T08:40:04.132Z,27.90
2017-08-04T08:42:30.504Z,25.10
2017-08-04T08:44:56.833Z,24.90
2017-08-04T08:47:23.709Z,25.50
2017-08-04T08:49:50.144Z,23.37
2017-08-04T08:52:16.714Z,24.37
2017-08-04T08:54:43.081Z,28.93
2017-08-04T08:57:09.483Z,17.43
2017-08-04T08:59:37.080Z,24.10
2017-08-04T09:02:03.711Z,18.40
2017-08-04T09:04:30.878Z,28.33
2017-08-04T09:06:57.237Z,23.67
2017-08-04T09:09:23.595Z,29.33
2017-08-04T09:11:50.023Z,24.23
2017-08-04T09:14:16.487Z,21.47
2017-08-04T09:16:43.622Z,23.00
2017-08-04T09:19:10.019Z,31.90
2017-08-04T09:21:36.573Z,19.80
2017-08-04T09:24:02.966Z,29.27
2017-08-04T09:26:29.339Z,35.13
2017-08-04T09:28:55.778Z,32.70
2017-08-04T09:31:22.522Z,24.20
2017-08-04T09:33:49.201Z,30.30
2017-08-04T09:36:15.575Z,21.90
2017-08-04T09:38:41.975Z,22.60
2017-08-04T09:41:08.386Z,19.77
2017-08-04T09:43:34.770Z,23.80
2017-08-04T09:46:01.218Z,18.67
2017-08-04T09:48:27.874Z,22.77
2017-08-04T09:50:54.515Z,19.77
2017-08-04T09:53:20.941Z,23.87
2017-08-04T09:55:47.295Z,23.40
2017-08-04T09:58:13.698Z,19.10
2017-08-04T10:00:40.064Z,15.27
2017-08-04T10:03:06.451Z,25.63
2017-08-04T10:05:33.530Z,20.00
2017-08-04T10:07:59.927Z,21.63
2017-08-04T10:10:27.029Z,29.43
2017-08-04T10:12:53.465Z,28.13
2017-08-04T10:15:19.818Z,24.80
2017-08-04T10:17:46.196Z,24.63
2017-08-04T10:20:12.591Z,23.10
2017-08-04T10:22:39.014Z,28.30
2017-08-04T10:25:06.160Z,18.83
2017-08-04T10:27:33.292Z,15.93
2017-08-04T10:29:59.645Z,16.40
2017-08-04T10:32:26.771Z,16.27
2017-08-04T10:34:53.913Z,17.10
2017-08-04T10:37:20.298Z,31.33
2017-08-04T10:39:46.642Z,22.13
2017-08-04T10:42:13.337Z,23.53
2017-08-04T10:44:40.719Z,18.67
2017-08-04T10:47:07.154Z,23.87
2017-08-04T10:49:33.549Z,27.37
2017-08-04T10:51:59.919Z,30.30
2017-08-04T10:54:26.318Z,19.87
2017-08-04T10:56:52.682Z,19.90
2017-08-04T10:59:19.069Z,19.07
2017-08-04T11:01:45.449Z,19.83
2017-08-04T11:04:11.826Z,24.63
2017-08-04T11:06:38.970Z,20.83
2017-08-04T11:09:08.470Z,20.77
2017-08-04T11:11:35.874Z,18.90
2017-08-04T11:14:02.300Z,22.00
2017-08-04T11:16:28.678Z,26.40
2017-08-04T11:18:55.070Z,30.53
2017-08-04T11:21:21.442Z,21.70
2017-08-04T11:23:47.830Z,24.10
2017-08-04T11:26:14.210Z,27.97
2017-08-04T11:28:40.633Z,25.67
2017-08-04T11:31:07.021Z,27.73
2017-08-04T11:33:34.188Z,26.30
2017-08-04T11:36:00.562Z,16.77
2017-08-04T11:38:27.730Z,21.57
2017-08-04T11:40:54.096Z,23.10
2017-08-04T11:43:20.537Z,18.53
2017-08-04T11:45:46.966Z,21.40
2017-08-04T11:48:13.387Z,26.17
2017-08-04T11:50:39.758Z,22.87
2017-08-04T11:53:07.142Z,26.77
2017-08-04T11:55:33.585Z,23.57
2017-08-04T11:58:02.872Z,20.23
2017-08-04T12:00:29.279Z,26.03
2017-08-04T12:02:55.638Z,20.43
2017-08-04T12:05:21.994Z,18.70
2017-08-04T12:07:48.352Z,23.70
2017-08-04T12:10:24.732Z,19.13
2017-08-04T12:12:51.711Z,22.80
2017-08-04T12:15:18.161Z,27.47
2017-08-04T12:17:44.557Z,24.20
2017-08-04T12:20:10.964Z,26.43
2017-08-04T12:22:37.330Z,20.30
2017-08-04T12:25:03.756Z,28.10
2017-08-04T12:27:30.131Z,17.73
2017-08-04T12:29:56.525Z,30.77
2017-08-04T12:32:22.915Z,29.40
2017-08-04T12:34:49.318Z,23.33
2017-08-04T12:37:15.703Z,24.33
2017-08-04T12:39:42.165Z,21.90
2017-08-04T12:42:08.523Z,27.83
2017-08-04T12:44:35.683Z,30.93
2017-08-04T12:47:02.772Z,23.93
2017-08-04T12:49:29.161Z,27.10
2017-08-04T12:51:55.522Z,21.27
2017-08-04T12:54:21.912Z,32.40
2017-08-04T12:56:48.293Z,21.03
2017-08-04T12:59:14.682Z,27.53
2017-08-04T13:01:41.775Z,18.47
2017-08-04T13:04:08.194Z,24.87
2017-08-04T13:06:34.577Z,21.30
2017-08-04T13:09:00.904Z,25.87
2017-08-04T13:11:27.403Z,29.83
2017-08-04T13:13:53.763Z,21.93
2017-08-04T13:16:20.179Z,30.57
2017-08-04T13:18:46.552Z,23.30
2017-08-04T13:21:12.954Z,30.43
2017-08-04T13:23:39.413Z,27.50
2017-08-04T13:26:06.142Z,28.23
2017-08-04T13:28:33.305Z,25.20
2017-08-04T13:30:59.659Z,29.23
2017-08-04T13:33:25.987Z,24.47
2017-08-04T13:35:52.359Z,21.83
2017-08-04T13:38:25.505Z,28.87
2017-08-04T13:40:51.870Z,23.70
2017-08-04T13:43:18.243Z,23.43
2017-08-04T13:45:44.618Z,33.57
2017-08-04T13:48:10.970Z,28.47
2017-08-04T13:50:37.343Z,24.10
2017-08-04T13:53:03.709Z,28.37
2017-08-04T13:55:30.057Z,20.50
2017-08-04T13:57:56.419Z,24.67
2017-08-04T14:00:22.831Z,19.77
2017-08-04T14:02:49.198Z,19.97
2017-08-04T14:05:15.555Z,26.80
2017-08-04T14:07:41.959Z,18.57
2017-08-04T14:10:08.320Z,24.63
2017-08-04T14:12:34.699Z,21.10
2017-08-04T14:15:01.035Z,14.70
2017-08-04T14:17:27.400Z,23.43
2017-08-04T14:19:53.736Z,26.57
2017-08-04T14:22:20.123Z,20.37
2017-08-04T14:24:46.449Z,18.70
2017-08-04T14:27:12.837Z,21.33
2017-08-04T14:29:39.191Z,21.40
2017-08-04T14:32:05.642Z,28.67
2017-08-04T14:34:32.015Z,15.07
2017-08-04T14:36:58.396Z,19.87
2017-08-04T14:39:24.745Z,20.00
2017-08-04T14:41:51.151Z,23.53
2017-08-04T14:44:17.518Z,21.60
2017-08-04T14:46:43.962Z,15.90
2017-08-04T14:49:10.307Z,17.47
2017-08-04T14:51:36.673Z,17.00
2017-08-04T14:54:03.815Z,18.03
2017-08-04T14:56:30.193Z,24.07
2017-08-04T14:58:56.562Z,17.60
2017-08-04T15:01:23.676Z,13.77
2017-08-04T15:03:50.100Z,16.90
2017-08-04T15:06:16.450Z,13.50
2017-08-04T15:08:42.879Z,15.40
2017-08-04T15:11:09.243Z,18.20
2017-08-04T15:13:35.740Z,19.20
2017-08-04T15:16:02.053Z,17.87
2017-08-04T15:18:28.481Z,17.73
2017-08-04T15:20:54.864Z,11.80
2017-08-04T15:23:21.978Z,18.00
2017-08-04T15:25:55.321Z,13.37
2017-08-04T15:28:21.687Z,23.13
2017-08-04T15:30:48.051Z,17.70
2017-08-04T15:33:14.379Z,14.60
2017-08-04T15:35:41.520Z,16.60
2017-08-04T15:38:07.924Z,20.37
2017-08-04T15:40:34.307Z,19.97
2017-08-04T15:43:00.746Z,19.37
2017-08-04T15:45:27.074Z,16.20
2017-08-04T15:47:53.489Z,19.10
2017-08-04T15:50:19.841Z,14.17
2017-08-04T15:52:46.191Z,17.27
2017-08-04T15:55:12.603Z,13.17
2017-08-04T15:57:38.957Z,17.10
2017-08-04T16:00:05.347Z,20.37
2017-08-04T16:02:32.488Z,13.37
2017-08-04T16:04:58.875Z,19.87
2017-08-04T16:07:25.266Z,14.57
2017-08-04T16:09:51.655Z,12.33
2017-08-04T16:12:18.515Z,15.00
2017-08-04T16:14:44.875Z,24.00
2017-08-04T16:17:11.453Z,16.27
2017-08-04T16:19:37.867Z,14.00
2017-08-04T16:22:04.652Z,15.83
2017-08-04T16:24:31.320Z,17.70
2017-08-04T16:26:58.075Z,18.77
2017-08-04T16:29:24.757Z,20.60
2017-08-04T16:31:57.276Z,16.93
2017-08-04T16:34:24.489Z,17.77
2017-08-04T16:36:51.405Z,15.47
2017-08-04T16:39:18.893Z,15.13
2017-08-04T16:41:45.446Z,17.30
2017-08-04T16:44:11.938Z,18.10
2017-08-04T16:46:38.502Z,14.20
2017-08-04T16:52:04.580Z,22.30
2017-08-04T16:54:31.131Z,16.37
2017-08-04T16:56:57.484Z,13.23
2017-08-04T16:59:23.956Z,11.70
2017-08-04T17:01:50.833Z,13.00
2017-08-04T17:04:17.253Z,16.77
2017-08-04T17:06:43.672Z,11.80
2017-08-04T17:09:10.411Z,9.20
2017-08-04T17:11:37.228Z,19.90
2017-08-04T17:14:03.640Z,13.27
2017-08-04T17:16:31.947Z,11.07
2017-08-04T17:18:58.482Z,16.67
2017-08-04T17:21:24.924Z,18.30
2017-08-04T17:23:51.267Z,14.57
2017-08-04T17:26:17.657Z,11.17
2017-08-04T17:28:44.834Z,17.30
2017-08-04T17:31:11.206Z,13.47
2017-08-04T17:33:38.369Z,16.20
2017-08-04T17:36:05.460Z,11.37
2017-08-04T17:38:31.910Z,12.73
2017-08-04T17:40:58.331Z,15.13
2017-08-04T17:43:25.041Z,14.80
2017-08-04T17:45:51.517Z,20.40
2017-08-04T17:48:18.025Z,9.97
2017-08-04T17:50:44.443Z,21.10
2017-08-04T17:53:10.917Z,12.03
2017-08-04T17:55:37.382Z,15.00
2017-08-04T17:58:03.840Z,16.20
2017-08-04T18:00:30.280Z,15.57
2017-08-04T18:03:08.625Z,14.70
2017-08-04T18:05:35.086Z,12.43
2017-08-04T18:08:02.300Z,13.23
2017-08-04T18:10:28.774Z,14.87
2017-08-04T18:12:55.212Z,18.27
2017-08-04T18:15:21.712Z,13.40
2017-08-04T18:17:48.903Z,20.47
2017-08-04T18:20:15.300Z,30.80
2017-08-04T18:22:42.446Z,13.43
2017-08-04T18:25:08.981Z,14.20
2017-08-04T18:27:35.452Z,11.60
2017-08-04T18:30:01.906Z,11.97
2017-08-04T18:32:28.287Z,10.70
2017-08-04T18:34:55.440Z,22.23
2017-08-04T18:37:22.303Z,12.23
2017-08-04T18:39:48.811Z,12.30
2017-08-04T18:42:16.329Z,9.63
2017-08-04T18:44:42.729Z,11.07
2017-08-04T18:47:09.154Z,13.03
2017-08-04T18:49:35.566Z,10.27
2017-08-04T18:52:01.999Z,12.10
2017-08-04T18:54:28.384Z,14.20
2017-08-04T18:56:54.822Z,14.63
2017-08-04T18:59:21.511Z,12.00
2017-08-04T19:01:47.903Z,15.57
2017-08-04T19:04:14.291Z,18.20
2017-08-04T19:06:40.683Z,12.93
2017-08-04T19:09:07.289Z,12.43
2017-08-04T19:11:33.741Z,14.20
2017-08-04T19:14:00.091Z,15.60
2017-08-04T19:16:26.550Z,19.73
2017-08-04T19:18:52.851Z,15.40
2017-08-04T19:21:24.310Z,12.50
2017-08-04T19:23:56.746Z,16.23
2017-08-04T19:26:29.312Z,12.60
2017-08-04T19:29:01.197Z,15.50
2017-08-04T19:31:33.096Z,18.20
2017-08-04T19:33:59.852Z,16.17
2017-08-04T19:36:52.091Z,14.30
2017-08-04T19:39:22.623Z,11.17
2017-08-04T19:41:49.970Z,13.03
2017-08-04T19:44:16.338Z,15.77
2017-08-04T19:46:43.324Z,15.70
2017-08-04T19:49:09.955Z,12.90
2017-08-04T19:51:36.516Z,12.33
2017-08-04T19:54:04.992Z,12.00
2017-08-04T19:56:31.909Z,13.87
2017-08-04T19:58:58.629Z,11.77
2017-08-04T20:01:25.085Z,11.47
2017-08-04T20:03:51.511Z,16.10
2017-08-04T20:06:17.937Z,12.50
2017-08-04T20:08:45.324Z,13.33
2017-08-04T20:11:11.834Z,16.03
2017-08-04T20:13:38.432Z,12.40
2017-08-04T20:16:05.010Z,13.50
2017-08-04T20:18:31.471Z,14.93
2017-08-04T20:20:58.675Z,10.80
2017-08-04T20:23:25.157Z,12.77
2017-08-04T20:25:51.570Z,18.27
2017-08-04T20:28:17.998Z,15.33
2017-08-04T20:30:45.767Z,18.63
2017-08-04T20:33:12.336Z,17.07
2017-08-04T20:35:39.180Z,15.93
2017-08-04T20:38:05.609Z,14.37
2017-08-04T20:40:32.010Z,16.83
2017-08-04T20:42:58.470Z,15.50
2017-08-04T20:45:24.900Z,15.40
2017-08-04T20:47:52.235Z,17.47
2017-08-04T20:50:19.409Z,18.57
2017-08-04T20:52:46.568Z,13.47
2017-08-04T20:55:13.185Z,15.03
2017-08-04T20:57:40.937Z,12.67
2017-08-04T21:00:08.170Z,11.87
2017-08-04T21:02:34.662Z,10.63
2017-08-04T21:05:01.269Z,13.43
2017-08-04T21:07:27.674Z,22.13
2017-08-04T21:09:54.068Z,12.43
2017-08-04T21:12:20.501Z,12.60
2017-08-04T21:14:47.330Z,10.23
2017-08-04T21:17:13.764Z,10.20
2017-08-04T21:19:40.116Z,13.20
2017-08-04T21:22:06.554Z,9.87
2017-08-04T21:24:32.926Z,7.80
2017-08-04T21:26:59.849Z,10.37
2017-08-04T21:29:26.919Z,10.47
2017-08-04T21:31:53.413Z,11.80
2017-08-04T21:34:19.808Z,9.47
2017-08-04T21:36:46.203Z,12.10
2017-08-04T21:39:13.268Z,14.47
2017-08-04T21:41:39.726Z,6.30
2017-08-04T21:44:06.400Z,7.87
2017-08-04T21:46:32.794Z,9.60
2017-08-04T21:48:59.478Z,10.47
2017-08-04T21:51:26.644Z,4.00
2017-08-04T21:53:52.988Z,9.27
2017-08-04T21:56:19.383Z,6.83
2017-08-04T21:58:45.773Z,4.20
2017-08-04T22:01:12.203Z,8.33
2017-08-04T22:03:38.536Z,8.23
2017-08-04T22:06:04.925Z,8.70
2017-08-04T22:08:31.327Z,4.80
2017-08-04T22:10:58.068Z,5.40
2017-08-04T22:13:24.529Z,6.97
2017-08-04T22:15:50.863Z,10.33
2017-08-04T22:18:17.216Z,7.73
2017-08-04T22:20:43.582Z,5.90
2017-08-04T22:23:09.964Z,11.63
2017-08-04T22:25:36.325Z,18.43
2017-08-04T22:28:02.720Z,12.20
2017-08-04T22:30:29.082Z,7.73
2017-08-04T22:32:55.515Z,4.97
2017-08-04T22:35:21.892Z,6.60
2017-08-04T22:37:49.322Z,10.77
2017-08-04T22:40:15.647Z,9.67
2017-08-04T22:42:42.031Z,7.83
2017-08-04T22:45:08.436Z,4.80
2017-08-04T22:47:35.564Z,11.30
2017-08-04T22:50:01.879Z,5.53
2017-08-04T22:52:28.236Z,6.20
2017-08-04T22:54:54.661Z,5.40
2017-08-04T22:57:21.740Z,8.10
2017-08-04T22:59:48.120Z,12.33
2017-08-04T23:02:14.506Z,4.00
2017-08-04T23:04:41.189Z,13.23
2017-08-04T23:07:08.338Z,5.53
2017-08-04T23:09:35.449Z,7.03
2017-08-04T23:12:01.964Z,6.20
2017-08-04T23:14:28.295Z,5.77
2017-08-04T23:16:54.594Z,9.63
2017-08-04T23:19:20.945Z,6.00
2017-08-04T23:21:47.302Z,10.93
2017-08-04T23:24:14.032Z,8.43
2017-08-04T23:26:40.739Z,6.93
2017-08-04T23:29:07.101Z,7.23
2017-08-04T23:31:34.266Z,10.60
2017-08-04T23:34:00.616Z,12.13
2017-08-04T23:36:27.179Z,6.43
2017-08-04T23:38:53.543Z,6.17
2017-08-04T23:41:19.908Z,13.03
2017-08-04T23:43:46.275Z,5.17
2017-08-04T23:46:12.626Z,4.70
2017-08-04T23:48:39.283Z,8.47
2017-08-04T23:51:05.648Z,5.67
2017-08-04T23:53:32.795Z,8.60
2017-08-04T23:55:59.181Z,5.53
2017-08-04T23:58:25.515Z,4.03
